Time;durP1;ratioP1;P1;durP2;ratioP2;P2;SDS_P1;SDS_P2;PMS_P1;PMS_P2;Temp;Humidity;BMP_temperature;BMP_pressure;BME280_temperature;BME280_humidity;BME280_pressure;Samples;Min_cycle;Max_cycle;Signal;HPM_P1;HPM_P2
2024/01/13 00:01:20;;;;;;;4.38;2.05;;;1.80;99.20;;;;;;5047119;28;20222;-44
2024/01/13 00:03:48;;;;;;;3.20;2.17;;;1.80;99.20;;;;;;5041298;28;20208;-43
2024/01/13 00:06:17;;;;;;;3.55;1.98;;;1.80;99.20;;;;;;5039177;28;20193;-44
2024/01/13 00:08:49;;;;;;;3.15;1.90;;;1.80;99.20;;;;;;5037884;28;20218;-44
2024/01/13 00:11:17;;;;;;;2.90;1.83;;;1.80;99.20;;;;;;5024454;28;20657;-43
2024/01/13 00:13:46;;;;;;;3.38;2.13;;;1.80;99.20;;;;;;5039498;28;20181;-43
2024/01/13 00:16:15;;;;;;;3.00;1.75;;;1.80;99.20;;;;;;5048854;28;20197;-43
2024/01/13 00:18:43;;;;;;;3.80;2.20;;;1.80;99.20;;;;;;5041515;28;20185;-43
2024/01/13 00:21:11;;;;;;;3.25;2.28;;;1.80;99.20;;;;;;5037749;28;20764;-43
2024/01/13 00:23:39;;;;;;;3.30;2.22;;;1.80;99.20;;;;;;5043736;28;20200;-44
2024/01/13 00:26:07;;;;;;;3.75;2.58;;;1.80;99.20;;;;;;5043655;28;20181;-43
2024/01/13 00:28:36;;;;;;;2.10;1.77;;;1.80;99.20;;;;;;5042401;28;20311;-44
2024/01/13 00:31:06;;;;;;;3.10;1.95;;;1.90;99.20;;;;;;5043297;28;20780;-44
2024/01/13 00:33:36;;;;;;;3.33;2.88;;;1.80;99.20;;;;;;5046742;28;20196;-43
2024/01/13 00:36:05;;;;;;;3.42;1.80;;;1.80;99.20;;;;;;5046066;28;20288;-44
2024/01/13 00:38:34;;;;;;;3.22;2.00;;;1.90;99.20;;;;;;5038356;28;20280;-45
2024/01/13 00:41:05;;;;;;;3.30;2.33;;;1.80;99.20;;;;;;5037788;28;20307;-43
2024/01/13 00:43:35;;;;;;;3.45;2.00;;;1.80;99.20;;;;;;5038571;28;20198;-44
2024/01/13 00:46:04;;;;;;;3.45;1.80;;;1.90;99.20;;;;;;5038931;28;20741;-44
2024/01/13 00:48:35;;;;;;;3.35;2.05;;;1.90;99.20;;;;;;5042265;28;20205;-43
2024/01/13 00:51:10;;;;;;;2.30;1.65;;;1.80;99.20;;;;;;5040456;28;20311;-43
2024/01/13 00:53:41;;;;;;;3.58;1.90;;;1.80;99.20;;;;;;5034447;28;20201;-43
2024/01/13 00:56:10;;;;;;;3.25;2.08;;;1.90;99.20;;;;;;5044569;28;20213;-43
2024/01/13 00:58:38;;;;;;;3.78;2.40;;;1.90;99.20;;;;;;5028141;28;20205;-43
2024/01/13 01:01:13;;;;;;;3.28;2.10;;;1.90;99.20;;;;;;5042825;28;20295;-43
2024/01/13 01:03:46;;;;;;;3.15;2.20;;;1.90;99.20;;;;;;5036572;28;20204;-43
2024/01/13 01:06:16;;;;;;;3.58;2.33;;;1.90;99.30;;;;;;5047141;28;20205;-43
2024/01/13 01:08:45;;;;;;;3.08;2.13;;;1.90;99.20;;;;;;5035007;28;20557;-43
2024/01/13 01:11:13;;;;;;;4.03;2.80;;;1.90;99.20;;;;;;5029516;28;20701;-44
2024/01/13 01:13:42;;;;;;;2.97;1.70;;;1.90;99.20;;;;;;5036865;28;20201;-43
2024/01/13 01:16:10;;;;;;;2.35;1.40;;;1.90;99.20;;;;;;5046161;28;20299;-44
2024/01/13 01:18:38;;;;;;;2.95;1.83;;;1.90;99.20;;;;;;5040817;28;20197;-44
2024/01/13 01:21:16;;;;;;;3.15;1.83;;;1.90;99.30;;;;;;5037087;28;20220;-43
2024/01/13 01:23:47;;;;;;;3.53;2.10;;;1.90;99.20;;;;;;5040013;28;20194;-44
2024/01/13 01:26:15;;;;;;;4.53;2.28;;;1.90;99.20;;;;;;5041064;28;20197;-43
2024/01/13 01:28:44;;;;;;;4.03;2.10;;;1.90;99.20;;;;;;5042782;28;20196;-44
2024/01/13 01:31:12;;;;;;;3.13;1.92;;;1.90;99.20;;;;;;5043100;28;20247;-43
2024/01/13 01:33:40;;;;;;;4.20;2.58;;;1.90;99.20;;;;;;5040460;28;20193;-43
2024/01/13 01:36:09;;;;;;;3.40;2.38;;;1.90;99.20;;;;;;5027465;28;20196;-43
2024/01/13 01:38:39;;;;;;;3.47;2.05;;;1.90;99.20;;;;;;5041420;28;20664;-44
2024/01/13 01:41:13;;;;;;;2.90;2.20;;;1.90;99.20;;;;;;5041943;28;20433;-43
2024/01/13 01:43:42;;;;;;;2.55;1.70;;;1.90;99.20;;;;;;5037360;28;20618;-43
2024/01/13 01:46:13;;;;;;;4.30;2.10;;;1.90;99.20;;;;;;5044239;28;20215;-43
2024/01/13 01:48:42;;;;;;;3.72;2.38;;;1.90;99.20;;;;;;5043031;28;20734;-43
2024/01/13 01:51:14;;;;;;;2.60;1.80;;;1.90;99.20;;;;;;5041349;28;20303;-43
2024/01/13 01:53:45;;;;;;;3.05;1.75;;;1.90;99.30;;;;;;5038760;28;20216;-43
2024/01/13 01:56:15;;;;;;;3.22;2.08;;;1.90;99.30;;;;;;5035466;28;20197;-43
2024/01/13 01:58:46;;;;;;;3.08;2.22;;;1.90;99.30;;;;;;5043071;28;20303;-44
2024/01/13 02:01:16;;;;;;;5.40;2.75;;;1.90;99.30;;;;;;5044979;28;20693;-43
2024/01/13 02:03:44;;;;;;;3.05;2.20;;;1.90;99.30;;;;;;5036320;28;20201;-43
2024/01/13 02:06:12;;;;;;;3.20;1.88;;;1.90;99.30;;;;;;5047187;28;20377;-44
2024/01/13 02:08:41;;;;;;;4.07;2.30;;;1.90;99.30;;;;;;5041897;28;20204;-43
2024/01/13 02:11:12;;;;;;;6.03;3.17;;;1.90;99.30;;;;;;5038074;28;20216;-43
2024/01/13 02:13:46;;;;;;;3.38;2.60;;;1.90;99.30;;;;;;5040132;28;20258;-43
2024/01/13 02:16:16;;;;;;;3.65;2.45;;;1.90;99.40;;;;;;5039528;28;20188;-45
2024/01/13 02:18:45;;;;;;;3.65;2.00;;;1.90;99.30;;;;;;5045518;28;20197;-48
2024/01/13 02:21:14;;;;;;;4.32;1.98;;;1.90;99.30;;;;;;5023699;28;20303;-45
2024/01/13 02:23:46;;;;;;;2.22;1.50;;;1.90;99.30;;;;;;5026801;28;20292;-45
2024/01/13 02:26:14;;;;;;;3.08;2.13;;;1.90;99.30;;;;;;5034202;28;20201;-47
2024/01/13 02:28:42;;;;;;;3.33;2.40;;;1.90;99.30;;;;;;5038422;28;20221;-46
2024/01/13 02:31:16;;;;;;;3.38;2.08;;;1.90;99.30;;;;;;5037667;28;20260;-46
2024/01/13 02:33:50;;;;;;;3.70;2.00;;;1.90;99.30;;;;;;5040954;28;20209;-45
2024/01/13 02:36:21;;;;;;;2.85;1.90;;;1.90;99.30;;;;;;5040263;28;20208;-48
2024/01/13 02:38:50;;;;;;;3.08;2.15;;;1.90;99.30;;;;;;5039776;28;20205;-47
2024/01/13 02:41:19;;;;;;;3.47;1.85;;;1.90;99.30;;;;;;5040328;28;20323;-47
2024/01/13 02:43:47;;;;;;;3.75;1.80;;;1.90;99.30;;;;;;5037528;28;20224;-47
2024/01/13 02:46:15;;;;;;;4.55;2.50;;;1.90;99.30;;;;;;5043451;28;20204;-46
2024/01/13 02:48:46;;;;;;;3.28;1.90;;;2.00;99.30;;;;;;5040833;28;20251;-47
2024/01/13 02:51:16;;;;;;;2.50;2.00;;;1.90;99.20;;;;;;5041005;28;20216;-46
2024/01/13 02:53:47;;;;;;;2.70;2.15;;;1.90;99.20;;;;;;5043478;28;20690;-45
2024/01/13 02:56:18;;;;;;;2.42;1.50;;;1.90;99.20;;;;;;5042824;28;20207;-45
2024/01/13 02:58:46;;;;;;;3.97;1.90;;;2.00;99.30;;;;;;5037766;28;20198;-46
2024/01/13 03:01:17;;;;;;;3.30;1.90;;;1.90;99.20;;;;;;5039786;28;20557;-44
2024/01/13 03:03:49;;;;;;;3.42;2.00;;;1.90;99.20;;;;;;5021402;28;20582;-43
2024/01/13 03:06:22;;;;;;;3.58;2.17;;;2.00;99.20;;;;;;5042382;28;20262;-43
2024/01/13 03:08:53;;;;;;;3.85;2.35;;;1.90;99.20;;;;;;5038410;28;20197;-44
2024/01/13 03:11:22;;;;;;;3.60;2.40;;;1.90;99.20;;;;;;5039905;28;20222;-44
2024/01/13 03:13:55;;;;;;;3.13;1.83;;;1.90;99.20;;;;;;5039208;28;20208;-44
2024/01/13 03:16:23;;;;;;;4.10;2.30;;;1.90;99.20;;;;;;5039437;28;20213;-44
2024/01/13 03:18:51;;;;;;;2.90;2.60;;;2.00;99.30;;;;;;5037317;28;20659;-44
2024/01/13 03:21:20;;;;;;;3.70;2.20;;;1.90;99.30;;;;;;5038590;28;20212;-44
2024/01/13 03:23:49;;;;;;;3.78;1.83;;;2.00;99.30;;;;;;5039303;28;20201;-44
2024/01/13 03:26:17;;;;;;;3.15;2.05;;;2.00;99.40;;;;;;5040258;28;20200;-43
2024/01/13 03:28:47;;;;;;;5.50;3.15;;;2.00;99.30;;;;;;5047359;28;20421;-43
2024/01/13 03:31:15;;;;;;;3.03;1.85;;;2.00;99.30;;;;;;5035526;28;20241;-43
2024/01/13 03:33:46;;;;;;;3.50;1.90;;;1.90;99.30;;;;;;5038422;28;20205;-44
2024/01/13 03:36:16;;;;;;;3.63;2.40;;;2.00;99.40;;;;;;5046900;28;20284;-43
2024/01/13 03:38:46;;;;;;;2.58;1.90;;;1.90;99.30;;;;;;5043870;28;20721;-43
2024/01/13 03:41:16;;;;;;;5.05;2.22;;;1.90;99.30;;;;;;5042573;28;20271;-43
2024/01/13 03:43:45;;;;;;;3.22;2.38;;;1.90;99.30;;;;;;5043973;28;20202;-43
2024/01/13 03:46:15;;;;;;;3.03;1.70;;;2.00;99.30;;;;;;5043444;28;20197;-43
2024/01/13 03:48:44;;;;;;;2.72;1.65;;;2.00;99.30;;;;;;5043075;28;20320;-44
2024/01/13 03:51:13;;;;;;;7.20;2.97;;;2.00;99.30;;;;;;5040110;28;20251;-43
2024/01/13 03:53:41;;;;;;;4.68;2.67;;;2.00;99.30;;;;;;5046261;28;20195;-43
2024/01/13 03:56:10;;;;;;;2.78;1.70;;;2.00;99.40;;;;;;5027057;28;20619;-42
2024/01/13 03:58:38;;;;;;;3.03;2.67;;;2.00;99.30;;;;;;5042151;28;20271;-45
2024/01/13 04:01:08;;;;;;;2.22;1.40;;;2.00;99.40;;;;;;5045028;28;20576;-43
2024/01/13 04:03:39;;;;;;;2.70;1.98;;;2.00;99.40;;;;;;5046009;28;20204;-42
2024/01/13 04:06:08;;;;;;;4.15;2.60;;;2.00;99.30;;;;;;5042087;28;20221;-43
2024/01/13 04:08:37;;;;;;;3.38;1.92;;;2.00;99.30;;;;;;5046280;28;20238;-43
2024/01/13 04:11:08;;;;;;;2.97;1.40;;;2.00;99.30;;;;;;5042372;28;20303;-43
2024/01/13 04:13:38;;;;;;;4.07;2.60;;;2.00;99.30;;;;;;5041362;28;20198;-44
2024/01/13 04:16:07;;;;;;;3.50;1.95;;;2.00;99.30;;;;;;5041120;28;20693;-43
2024/01/13 04:18:36;;;;;;;2.67;1.75;;;2.00;99.30;;;;;;5037759;28;20208;-43
2024/01/13 04:21:06;;;;;;;5.22;1.92;;;2.00;99.30;;;;;;5036857;28;20591;-45
2024/01/13 04:23:49;;;;;;;3.10;1.80;;;2.00;99.30;;;;;;5037105;28;20197;-44
2024/01/13 04:26:18;;;;;;;3.05;2.00;;;2.00;99.30;;;;;;5035092;28;20193;-44
2024/01/13 04:28:46;;;;;;;3.00;1.83;;;2.00;99.30;;;;;;5039875;28;21731;-44
2024/01/13 04:31:14;;;;;;;2.70;1.70;;;2.00;99.20;;;;;;5034489;28;20713;-41
2024/01/13 04:33:43;;;;;;;3.58;2.10;;;2.00;99.30;;;;;;5036957;28;20189;-44
2024/01/13 04:36:13;;;;;;;4.38;2.50;;;2.00;99.20;;;;;;5040020;28;20704;-44
2024/01/13 04:38:41;;;;;;;3.30;1.70;;;2.00;99.30;;;;;;5041976;28;20200;-44
2024/01/13 04:41:09;;;;;;;2.65;2.10;;;2.00;99.30;;;;;;5042991;28;20271;-44
2024/01/13 04:43:38;;;;;;;2.30;1.67;;;2.00;99.30;;;;;;5056014;28;20208;-43
2024/01/13 04:46:07;;;;;;;3.85;2.20;;;2.00;99.30;;;;;;5048042;28;20225;-43
2024/01/13 04:48:35;;;;;;;3.45;2.08;;;2.00;99.30;;;;;;5047661;28;20228;-43
2024/01/13 04:51:04;;;;;;;2.65;1.90;;;2.00;99.30;;;;;;5036595;28;20242;-43
2024/01/13 04:53:33;;;;;;;2.55;1.58;;;2.00;99.30;;;;;;5046872;28;20295;-43
2024/01/13 04:56:02;;;;;;;3.25;1.80;;;2.00;99.30;;;;;;5044599;28;20227;-43
2024/01/13 04:58:30;;;;;;;3.85;2.50;;;2.00;99.30;;;;;;5050158;28;20201;-43
2024/01/13 05:00:58;;;;;;;3.63;2.17;;;2.00;99.30;;;;;;5038161;28;20264;-43
2024/01/13 05:03:26;;;;;;;4.07;2.00;;;2.00;99.30;;;;;;5039893;28;20197;-44
2024/01/13 05:05:55;;;;;;;3.00;1.88;;;2.00;99.30;;;;;;5043122;28;20237;-43
2024/01/13 05:08:23;;;;;;;3.53;2.10;;;2.00;99.30;;;;;;5043374;28;20302;-44
2024/01/13 05:10:53;;;;;;;2.95;1.80;;;2.00;99.30;;;;;;5037850;28;20225;-43
2024/01/13 05:13:21;;;;;;;3.55;1.83;;;2.00;99.30;;;;;;5039199;28;20221;-43
2024/01/13 05:15:49;;;;;;;3.38;2.10;;;2.00;99.30;;;;;;5039858;28;20562;-44
2024/01/13 05:18:17;;;;;;;4.00;2.30;;;2.00;99.30;;;;;;5037448;28;20635;-43
2024/01/13 05:20:46;;;;;;;2.20;1.45;;;2.00;99.30;;;;;;5045451;28;20232;-43
2024/01/13 05:23:14;;;;;;;3.13;1.90;;;2.00;99.30;;;;;;5039254;28;20190;-43
2024/01/13 05:25:42;;;;;;;4.45;2.10;;;2.00;99.30;;;;;;5036919;28;20271;-43
2024/01/13 05:28:12;;;;;;;3.33;1.80;;;2.00;99.30;;;;;;5043360;28;20192;-45
2024/01/13 05:30:40;;;;;;;2.70;1.80;;;2.00;99.30;;;;;;5036840;28;20331;-45
2024/01/13 05:33:08;;;;;;;3.45;2.10;;;2.00;99.20;;;;;;5039064;28;20226;-45
2024/01/13 05:35:37;;;;;;;3.00;2.03;;;2.00;99.20;;;;;;5043674;28;20274;-44
2024/01/13 05:38:06;;;;;;;3.10;1.48;;;2.10;99.30;;;;;;5040887;28;20561;-45
2024/01/13 05:40:34;;;;;;;3.20;2.20;;;2.00;99.30;;;;;;5045330;28;20255;-46
2024/01/13 05:43:03;;;;;;;3.38;1.98;;;2.10;99.30;;;;;;5041063;28;20678;-46
2024/01/13 05:45:32;;;;;;;3.58;1.95;;;2.00;99.30;;;;;;5035348;28;20688;-46
2024/01/13 05:48:01;;;;;;;3.15;1.67;;;2.00;99.30;;;;;;5037691;28;20189;-46
2024/01/13 05:50:30;;;;;;;2.70;1.73;;;2.00;99.20;;;;;;5036703;28;20224;-44
2024/01/13 05:52:58;;;;;;;2.97;2.13;;;2.00;99.30;;;;;;5043624;28;20472;-47
2024/01/13 05:55:26;;;;;;;2.50;1.75;;;2.00;99.30;;;;;;5039767;28;20225;-49
2024/01/13 05:57:57;;;;;;;3.22;1.90;;;2.00;99.30;;;;;;5043138;28;20889;-44
2024/01/13 06:00:25;;;;;;;2.90;1.83;;;2.00;99.20;;;;;;5032231;28;20213;-45
2024/01/13 06:02:56;;;;;;;1.85;1.40;;;2.10;99.30;;;;;;5039541;28;20197;-45
2024/01/13 06:05:25;;;;;;;3.80;2.35;;;2.00;99.30;;;;;;5040507;28;20267;-46
2024/01/13 06:07:53;;;;;;;2.85;1.75;;;2.10;99.30;;;;;;5043856;28;20197;-45
2024/01/13 06:10:21;;;;;;;3.25;1.92;;;2.10;99.20;;;;;;5040658;28;20223;-46
2024/01/13 06:12:49;;;;;;;3.30;1.73;;;2.10;99.20;;;;;;5039829;28;20221;-47
2024/01/13 06:15:17;;;;;;;3.60;2.20;;;2.00;99.20;;;;;;5038160;28;20220;-46
2024/01/13 06:17:46;;;;;;;2.70;2.10;;;2.10;99.30;;;;;;5039376;28;20206;-45
2024/01/13 06:20:15;;;;;;;3.13;1.92;;;2.10;99.30;;;;;;5036793;28;20228;-48
2024/01/13 06:22:43;;;;;;;3.90;2.50;;;2.10;99.30;;;;;;5045444;28;20204;-47
2024/01/13 06:25:12;;;;;;;3.70;1.90;;;2.10;99.30;;;;;;5044997;28;20296;-46
2024/01/13 06:27:40;;;;;;;3.08;2.10;;;2.10;99.40;;;;;;5042702;28;20197;-45
2024/01/13 06:30:10;;;;;;;3.45;1.60;;;2.10;99.30;;;;;;5035607;28;20229;-46
2024/01/13 06:32:39;;;;;;;3.05;2.10;;;2.10;99.40;;;;;;5043332;28;20606;-48
2024/01/13 06:35:08;;;;;;;3.95;2.35;;;2.10;99.40;;;;;;5041796;28;20212;-45
2024/01/13 06:37:37;;;;;;;3.63;2.08;;;2.10;99.30;;;;;;5039341;28;20201;-45
2024/01/13 06:40:08;;;;;;;2.92;1.80;;;2.10;99.40;;;;;;5036018;28;20209;-46
2024/01/13 06:42:36;;;;;;;3.17;2.38;;;2.10;99.80;;;;;;5034189;28;20209;-44
2024/01/13 06:45:06;;;;;;;3.45;2.55;;;2.10;99.30;;;;;;5042725;28;20250;-46
2024/01/13 06:47:34;;;;;;;3.63;2.45;;;2.10;99.40;;;;;;5040927;28;20585;-48
2024/01/13 06:50:03;;;;;;;4.55;2.70;;;2.10;99.30;;;;;;5036006;28;20698;-45
2024/01/13 06:52:31;;;;;;;4.10;2.10;;;2.10;99.30;;;;;;5039116;28;20220;-46
2024/01/13 06:55:02;;;;;;;3.33;2.00;;;2.10;99.30;;;;;;5033554;28;20224;-46
2024/01/13 06:57:30;;;;;;;3.13;2.17;;;2.10;99.30;;;;;;5039333;28;20192;-46
2024/01/13 06:59:58;;;;;;;3.00;2.05;;;2.10;99.40;;;;;;5036978;28;20654;-48
2024/01/13 07:02:26;;;;;;;4.13;2.65;;;2.10;99.50;;;;;;5036413;28;20216;-46
2024/01/13 07:05:00;;;;;;;5.40;3.97;;;2.10;99.40;;;;;;5036770;28;20735;-46
2024/01/13 07:07:31;;;;;;;2.75;2.22;;;2.10;99.50;;;;;;5042420;28;20230;-46
2024/01/13 07:10:00;;;;;;;2.92;1.85;;;2.10;99.50;;;;;;5037460;28;20819;-46
2024/01/13 07:12:29;;;;;;;3.63;2.55;;;2.10;99.50;;;;;;5049749;28;20207;-45
2024/01/13 07:14:57;;;;;;;3.75;2.33;;;2.10;99.40;;;;;;5039930;28;20221;-45
2024/01/13 07:17:29;;;;;;;4.45;2.80;;;2.10;99.40;;;;;;5041585;28;20201;-47
2024/01/13 07:19:58;;;;;;;6.07;3.97;;;2.10;99.50;;;;;;5044497;28;20229;-45
2024/01/13 07:22:27;;;;;;;4.97;3.53;;;2.10;99.60;;;;;;5044153;28;20228;-44
2024/01/13 07:24:55;;;;;;;3.70;2.70;;;2.10;99.40;;;;;;5043905;28;20220;-44
2024/01/13 07:27:25;;;;;;;5.22;3.35;;;2.10;99.60;;;;;;5020961;28;20887;-44
2024/01/13 07:29:53;;;;;;;5.18;3.70;;;2.10;99.50;;;;;;5037870;28;20699;-44
2024/01/13 07:32:29;;;;;;;5.95;4.07;;;2.10;99.50;;;;;;5044138;28;20197;-43
2024/01/13 07:34:57;;;;;;;3.50;2.10;;;2.10;99.50;;;;;;5044801;28;20246;-43
2024/01/13 07:37:25;;;;;;;4.43;2.75;;;2.10;99.40;;;;;;5046699;28;20229;-44
2024/01/13 07:39:54;;;;;;;4.20;2.67;;;2.10;99.50;;;;;;5037189;28;20253;-45
2024/01/13 07:42:22;;;;;;;3.88;2.78;;;2.10;99.50;;;;;;5043524;28;20208;-43
2024/01/13 07:44:51;;;;;;;4.97;3.10;;;2.10;99.50;;;;;;5041542;28;20209;-43
2024/01/13 07:47:20;;;;;;;6.00;3.60;;;2.10;99.60;;;;;;5040306;28;20208;-44
2024/01/13 07:49:48;;;;;;;3.95;2.50;;;2.10;99.60;;;;;;5041448;28;20221;-44
2024/01/13 07:52:16;;;;;;;4.57;3.08;;;2.10;99.50;;;;;;5047972;28;20216;-43
2024/01/13 07:54:44;;;;;;;3.83;2.10;;;2.10;99.50;;;;;;5038902;28;20316;-44
2024/01/13 07:57:14;;;;;;;3.25;2.33;;;2.10;99.50;;;;;;5042968;28;20201;-44
2024/01/13 07:59:42;;;;;;;2.90;2.05;;;2.10;99.40;;;;;;5036309;28;20643;-44
2024/01/13 08:02:12;;;;;;;3.75;2.30;;;2.10;99.40;;;;;;5045102;28;20208;-43
2024/01/13 08:04:40;;;;;;;3.50;2.40;;;2.10;99.40;;;;;;5043027;28;20221;-44
2024/01/13 08:07:09;;;;;;;4.65;2.47;;;2.10;99.40;;;;;;5041264;28;20201;-43
2024/01/13 08:09:37;;;;;;;4.25;2.67;;;2.10;99.50;;;;;;5046027;28;20217;-43
2024/01/13 08:12:07;;;;;;;4.55;3.25;;;2.10;99.50;;;;;;5035792;28;20275;-43
2024/01/13 08:14:35;;;;;;;3.97;2.97;;;2.10;99.50;;;;;;5041697;28;20308;-43
2024/01/13 08:17:04;;;;;;;3.67;2.78;;;2.10;99.60;;;;;;5047215;28;20682;-43
2024/01/13 08:19:34;;;;;;;4.43;2.75;;;2.10;99.50;;;;;;5047323;28;20655;-43
2024/01/13 08:22:02;;;;;;;3.47;2.55;;;2.10;99.60;;;;;;5041685;28;20753;-43
2024/01/13 08:24:31;;;;;;;3.08;2.45;;;2.10;99.60;;;;;;5048042;28;20637;-44
2024/01/13 08:26:59;;;;;;;6.00;4.28;;;2.10;99.60;;;;;;5049093;28;20207;-43
2024/01/13 08:29:28;;;;;;;4.90;3.28;;;2.10;99.70;;;;;;5037507;28;20217;-44
2024/01/13 08:31:56;;;;;;;3.70;2.35;;;2.10;99.70;;;;;;5040944;28;20218;-43
2024/01/13 08:34:24;;;;;;;6.57;4.35;;;2.10;99.60;;;;;;5041339;28;20227;-43
2024/01/13 08:36:54;;;;;;;9.15;4.90;;;2.10;99.90;;;;;;5044951;28;20591;-44
2024/01/13 08:39:22;;;;;;;7.25;5.43;;;2.10;99.90;;;;;;5047355;28;20768;-43
2024/01/13 08:41:50;;;;;;;6.05;5.38;;;2.20;99.90;;;;;;5048622;28;20212;-45
2024/01/13 08:44:18;;;;;;;9.82;7.00;;;2.20;99.90;;;;;;5047107;28;20216;-44
2024/01/13 08:46:47;;;;;;;8.95;6.78;;;2.30;99.90;;;;;;5047943;28;20196;-43
2024/01/13 08:49:15;;;;;;;13.13;7.30;;;2.30;99.90;;;;;;5047579;28;20518;-43
2024/01/13 08:51:43;;;;;;;8.80;6.05;;;2.30;99.90;;;;;;5050268;28;20227;-45
2024/01/13 08:54:13;;;;;;;12.38;7.18;;;2.30;99.90;;;;;;5048145;28;20231;-45
2024/01/13 08:56:41;;;;;;;11.93;7.35;;;2.30;99.90;;;;;;5050253;28;20209;-44
2024/01/13 08:59:09;;;;;;;10.38;6.78;;;2.20;99.90;;;;;;5046438;28;20231;-44
2024/01/13 09:01:38;;;;;;;9.50;6.07;;;2.20;99.90;;;;;;5048215;28;20220;-44
2024/01/13 09:04:08;;;;;;;8.93;6.60;;;2.20;99.90;;;;;;5040434;28;20218;-43
2024/01/13 09:06:36;;;;;;;8.73;5.65;;;2.20;99.90;;;;;;5043447;28;20239;-43
2024/01/13 09:09:05;;;;;;;7.88;6.30;;;2.20;99.90;;;;;;5049078;28;20197;-43
2024/01/13 09:11:41;;;;;;;8.52;6.35;;;2.20;99.90;;;;;;5038333;28;20213;-44
2024/01/13 09:14:13;;;;;;;11.38;5.82;;;2.20;99.90;;;;;;5038028;28;20233;-44
2024/01/13 09:16:43;;;;;;;6.70;5.25;;;2.20;99.90;;;;;;5048977;28;20192;-42
2024/01/13 09:19:11;;;;;;;9.77;5.55;;;2.20;99.90;;;;;;5047428;28;20225;-43
2024/01/13 09:21:41;;;;;;;7.88;4.88;;;2.20;99.90;;;;;;5043663;28;20223;-44
2024/01/13 09:24:13;;;;;;;8.98;6.18;;;2.20;99.90;;;;;;5044867;28;20221;-43
2024/01/13 09:26:45;;;;;;;6.97;5.30;;;2.20;99.90;;;;;;5049709;28;20199;-43
2024/01/13 09:29:17;;;;;;;9.57;5.88;;;2.20;99.90;;;;;;5038543;28;20303;-43
2024/01/13 09:31:48;;;;;;;6.28;5.03;;;2.20;99.90;;;;;;5048381;28;20227;-43
2024/01/13 09:34:17;;;;;;;6.43;5.55;;;2.20;99.90;;;;;;5046109;28;20267;-43
2024/01/13 09:36:46;;;;;;;7.50;5.93;;;2.20;99.90;;;;;;5041330;28;20251;-43
2024/01/13 09:39:20;;;;;;;6.20;5.00;;;2.20;99.90;;;;;;5045159;28;20216;-43
2024/01/13 09:41:50;;;;;;;6.63;4.97;;;2.20;99.90;;;;;;5049603;28;20216;-43
2024/01/13 09:44:22;;;;;;;6.20;5.00;;;2.20;99.90;;;;;;5044360;28;20244;-44
2024/01/13 09:46:52;;;;;;;7.85;5.25;;;2.20;99.90;;;;;;5046839;28;20193;-43
2024/01/13 09:49:24;;;;;;;8.60;4.70;;;2.20;99.90;;;;;;5042113;28;20228;-43
2024/01/13 09:51:53;;;;;;;6.68;6.03;;;2.20;99.90;;;;;;5047284;28;20225;-43
2024/01/13 09:54:23;;;;;;;7.82;5.78;;;2.20;99.90;;;;;;5042353;28;20251;-43
2024/01/13 09:56:55;;;;;;;5.30;4.50;;;2.20;99.90;;;;;;5044612;28;20705;-43
2024/01/13 09:59:25;;;;;;;5.63;4.55;;;2.20;99.90;;;;;;5042354;28;20547;-42
2024/01/13 10:01:53;;;;;;;7.47;4.55;;;2.20;99.90;;;;;;5046778;28;20665;-43
2024/01/13 10:04:22;;;;;;;5.95;4.72;;;2.20;99.90;;;;;;5038944;28;20225;-43
2024/01/13 10:06:51;;;;;;;5.22;3.88;;;2.20;99.90;;;;;;5043589;28;20216;-43
2024/01/13 10:09:19;;;;;;;6.78;5.07;;;2.20;99.90;;;;;;5039680;28;20227;-42
2024/01/13 10:12:06;;;;;;;7.85;5.28;;;2.20;99.90;;;;;;5045826;28;20239;-44
2024/01/13 10:14:38;;;;;;;6.75;4.57;;;2.20;99.90;;;;;;5020368;28;20695;-43
2024/01/13 10:17:07;;;;;;;5.82;4.15;;;2.20;99.90;;;;;;5045875;28;20666;-43
2024/01/13 10:19:37;;;;;;;4.47;3.90;;;2.20;99.90;;;;;;5039836;28;20608;-43
2024/01/13 10:22:06;;;;;;;6.75;4.22;;;2.20;99.90;;;;;;5044356;28;20599;-43
2024/01/13 10:24:35;;;;;;;6.10;4.40;;;2.20;99.90;;;;;;5043311;28;20717;-43
2024/01/13 10:27:08;;;;;;;6.75;3.78;;;2.20;99.90;;;;;;5048015;28;20216;-43
2024/01/13 10:29:37;;;;;;;6.40;4.32;;;2.20;99.90;;;;;;5037762;28;20208;-43
2024/01/13 10:32:10;;;;;;;5.63;3.65;;;2.20;99.90;;;;;;5037511;28;20231;-43
2024/01/13 10:34:45;;;;;;;7.00;4.57;;;2.30;99.90;;;;;;5036819;28;20220;-43
2024/01/13 10:37:14;;;;;;;6.05;4.43;;;2.30;99.90;;;;;;5045695;28;20200;-43
2024/01/13 10:39:42;;;;;;;6.43;4.25;;;2.30;99.90;;;;;;5044277;28;20785;-44
2024/01/13 10:42:15;;;;;;;4.72;3.72;;;2.30;99.90;;;;;;5047823;28;20221;-44
2024/01/13 10:44:49;;;;;;;4.78;3.20;;;2.20;99.90;;;;;;5041812;28;20305;-44
2024/01/13 10:47:21;;;;;;;7.05;4.90;;;2.30;99.90;;;;;;5045688;28;20222;-43
2024/01/13 10:49:52;;;;;;;6.95;4.93;;;2.20;99.90;;;;;;5052062;28;20220;-45
2024/01/13 10:52:27;;;;;;;8.07;4.00;;;2.30;99.90;;;;;;5049939;28;20239;-44
2024/01/13 10:54:57;;;;;;;7.32;5.15;;;2.30;99.90;;;;;;5044114;28;20212;-46
2024/01/13 10:57:29;;;;;;;7.63;4.88;;;2.30;99.90;;;;;;5051244;28;20197;-45
2024/01/13 10:59:58;;;;;;;8.45;5.00;;;2.30;99.90;;;;;;5048289;28;20310;-45
2024/01/13 11:02:29;;;;;;;10.95;5.85;;;2.40;99.90;;;;;;5043451;28;20672;-44
2024/01/13 11:04:59;;;;;;;5.82;5.22;;;2.40;99.90;;;;;;5041117;28;20217;-44
2024/01/13 11:07:27;;;;;;;12.88;7.43;;;2.50;99.90;;;;;;5049745;28;20204;-43
2024/01/13 11:09:58;;;;;;;9.30;6.07;;;2.50;99.90;;;;;;5044768;28;20220;-43
2024/01/13 11:12:38;;;;;;;8.77;6.40;;;2.50;99.90;;;;;;5027051;28;20197;-43
2024/01/13 11:15:15;;;;;;;9.40;5.20;;;2.50;99.90;;;;;;5037450;28;20224;-43
2024/01/13 11:17:47;;;;;;;9.05;5.22;;;2.50;99.90;;;;;;5046338;28;20231;-43
2024/01/13 11:20:18;;;;;;;7.35;4.97;;;2.50;99.90;;;;;;5050154;28;20768;-44
2024/01/13 11:22:57;;;;;;;6.93;4.82;;;2.50;99.90;;;;;;5045233;28;20239;-43
2024/01/13 11:25:26;;;;;;;6.82;5.47;;;2.50;99.90;;;;;;5044784;28;20216;-44
2024/01/13 11:27:58;;;;;;;9.27;5.18;;;2.50;99.90;;;;;;5038265;28;20203;-43
2024/01/13 11:30:31;;;;;;;9.02;5.38;;;2.50;99.90;;;;;;5020531;28;20232;-43
2024/01/13 11:33:00;;;;;;;7.95;4.15;;;2.50;99.90;;;;;;5047466;28;20284;-44
2024/01/13 11:35:28;;;;;;;9.73;4.22;;;2.50;99.90;;;;;;5028357;28;20283;-43
2024/01/13 11:37:57;;;;;;;8.85;5.80;;;2.50;99.90;;;;;;5051400;28;20200;-44
2024/01/13 11:40:27;;;;;;;8.45;5.60;;;2.50;99.90;;;;;;5047242;28;20733;-43
2024/01/13 11:43:22;;;;;;;7.30;4.50;;;2.50;99.90;;;;;;5050242;28;20651;-43
2024/01/13 11:45:51;;;;;;;6.57;4.35;;;2.60;99.90;;;;;;5047441;28;20212;-43
2024/01/13 11:48:41;;;;;;;5.45;4.82;;;2.60;99.90;;;;;;5050520;28;20203;-43
2024/01/13 11:51:13;;;;;;;6.18;4.38;;;2.60;99.90;;;;;;5041172;28;20239;-43
2024/01/13 11:53:44;;;;;;;8.07;4.93;;;2.60;99.90;;;;;;5047342;28;20219;-43
2024/01/13 11:56:14;;;;;;;5.53;3.65;;;2.60;99.90;;;;;;5045694;28;20216;-43
2024/01/13 11:58:45;;;;;;;6.57;4.85;;;2.60;99.90;;;;;;5049913;28;20197;-42
2024/01/13 12:01:13;;;;;;;8.65;4.30;;;2.60;99.90;;;;;;5045027;28;20728;-43
2024/01/13 12:03:43;;;;;;;7.32;4.60;;;2.60;99.90;;;;;;5049756;28;20280;-43
2024/01/13 12:06:13;;;;;;;8.50;4.38;;;2.60;99.90;;;;;;5048666;28;20219;-43
2024/01/13 12:08:42;;;;;;;6.65;5.03;;;2.60;99.80;;;;;;5045271;28;20197;-42
2024/01/13 12:11:12;;;;;;;8.00;4.28;;;2.60;99.80;;;;;;5043749;28;20223;-44
2024/01/13 12:13:43;;;;;;;6.32;4.05;;;2.70;99.80;;;;;;5046111;28;20201;-44
2024/01/13 12:16:12;;;;;;;7.35;4.38;;;2.70;99.90;;;;;;5045866;28;20243;-43
2024/01/13 12:18:40;;;;;;;5.97;3.90;;;2.70;99.90;;;;;;5045502;28;20664;-43
2024/01/13 12:21:09;;;;;;;7.25;4.95;;;2.70;99.90;;;;;;5044669;28;20522;-44
2024/01/13 12:23:37;;;;;;;8.10;4.38;;;2.70;99.90;;;;;;5048083;28;20254;-43
2024/01/13 12:26:06;;;;;;;6.88;5.45;;;2.70;99.90;;;;;;5036911;28;20219;-43
2024/01/13 12:28:40;;;;;;;8.10;4.68;;;2.70;99.80;;;;;;5041234;28;20235;-44
2024/01/13 12:31:10;;;;;;;7.78;4.90;;;2.70;99.70;;;;;;5044435;28;20335;-43
2024/01/13 12:33:39;;;;;;;7.15;4.35;;;2.70;99.70;;;;;;5041329;28;20223;-43
2024/01/13 12:36:12;;;;;;;9.70;4.90;;;2.70;99.80;;;;;;5049026;28;20228;-44
2024/01/13 12:38:42;;;;;;;5.97;4.38;;;2.70;99.80;;;;;;5049266;28;20196;-44
2024/01/13 12:41:10;;;;;;;4.60;3.60;;;2.70;99.70;;;;;;5046054;28;20706;-43
2024/01/13 12:43:39;;;;;;;4.85;3.67;;;2.70;99.80;;;;;;5041955;28;20647;-44
2024/01/13 12:46:10;;;;;;;6.68;4.40;;;2.70;99.60;;;;;;5045361;28;20212;-43
2024/01/13 12:48:39;;;;;;;7.82;5.50;;;2.70;99.70;;;;;;5039940;28;20195;-46
2024/01/13 12:51:20;;;;;;;7.65;4.07;;;2.70;99.60;;;;;;5047124;28;20227;-46
2024/01/13 12:53:49;;;;;;;7.63;4.38;;;2.70;99.60;;;;;;5045599;28;20193;-45
2024/01/13 12:56:18;;;;;;;6.13;4.00;;;2.70;99.60;;;;;;5049394;28;20700;-45
2024/01/13 12:58:47;;;;;;;7.35;5.25;;;2.70;99.50;;;;;;5044247;28;20587;-47
2024/01/13 13:01:16;;;;;;;9.18;4.20;;;2.70;99.50;;;;;;5042049;28;20300;-44
2024/01/13 13:03:45;;;;;;;5.95;3.90;;;2.70;99.50;;;;;;5042803;28;20196;-44
2024/01/13 13:06:13;;;;;;;7.43;4.68;;;2.80;99.80;;;;;;5047404;28;20212;-50
2024/01/13 13:08:41;;;;;;;7.03;3.95;;;2.80;99.80;;;;;;5044907;28;20216;-45
2024/01/13 13:11:12;;;;;;;5.70;3.88;;;2.70;99.70;;;;;;5044095;28;20223;-45